Terminal Aerodrome Forecast
Issued by NWS

Home | Current Version | Previous Version | Graphics & Text | Print | Product List | Glossary On
Versions: 1 2 3 4 5 6 7 8 9 10 11 12 13 14 15 16 17 18 19 20 21 22
000
FTUS43 KBIS 260900 AAB
TAFMOT
TAF AMD
KMOT 260922Z 2609/2706 32011KT P6SM SCT010
      TEMPO 2610/2613 -SHSN OVC009
     FM261300 31008KT P6SM -SHSN OVC016
      TEMPO 2614/2617 SCT015 BKN035
     FM261700 30006KT P6SM SCT008 BKN180=

USA.gov is the U.S. government's official web portal to all federal, state and local government web resources and services.